Time;durP1;ratioP1;P1;durP2;ratioP2;P2;SDS_P1;SDS_P2;PMS_P1;PMS_P2;Temp;Humidity;BMP_temperature;BMP_pressure;BME280_temperature;BME280_humidity;BME280_pressure;Samples;Min_cycle;Max_cycle;Signal;HPM_P1;HPM_P2
2022/01/06 00:02:04;;;;;;;;;;;;;;;;;;5020341;28;1676;-79
2022/01/06 00:04:29;;;;;;;;;;;;;;;;;;5018827;28;1433;-79
2022/01/06 00:06:54;;;;;;;;;;;;;;;;;;5014248;28;1596;-79
2022/01/06 00:09:21;;;;;;;;;;;;;;;;;;5014446;28;826;-79
2022/01/06 00:11:46;;;;;;;;;;;;;;;;;;5013951;28;1906;-79
2022/01/06 00:14:51;;;;;;;;;;;;;;;;;;5028176;28;1553;-78
2022/01/06 00:17:20;;;;;;;;;;;;;;;;;;5018836;28;1645;-78
2022/01/06 00:25:13;;;;;;;;;;;;;;;;;;5017241;28;1573;-78
2022/01/06 00:27:38;;;;;;;;;;;;;;;;;;5014534;28;1605;-78
2022/01/06 00:30:04;;;;;;;;;;;;;;;;;;5032966;28;843;-78
2022/01/06 00:32:29;;;;;;;;;;;;;;;;;;5021478;28;1979;-79
2022/01/06 00:34:54;;;;;;;;;;;;;;;;;;5039692;28;1534;-78
2022/01/06 00:37:19;;;;;;;;;;;;;;;;;;5034364;28;1542;-78
2022/01/06 00:39:44;;;;;;;;;;;;;;;;;;5015193;28;1541;-78
2022/01/06 00:42:10;;;;;;;;;;;;;;;;;;5031376;28;1450;-78
2022/01/06 00:44:35;;;;;;;;;;;;;;;;;;5033304;28;1208;-78
2022/01/06 00:47:00;;;;;;;;;;;;;;;;;;5019639;28;1580;-78
2022/01/06 00:49:25;;;;;;;;;;;;;;;;;;5029853;28;1652;-78
2022/01/06 00:51:50;;;;;;;;;;;;;;;;;;5019122;28;1902;-78
2022/01/06 00:54:16;;;;;;;;;;;;;;;;;;5019787;28;1637;-78
2022/01/06 00:56:41;;;;;;;;;;;;;;;;;;5018998;28;1608;-78
2022/01/06 00:59:06;;;;;;;;;;;;;;;;;;5027171;28;1541;-78
2022/01/06 01:01:32;;;;;;;;;;;;;;;;;;5022654;28;1657;-78
2022/01/06 01:03:57;;;;;;;;;;;;;;;;;;5012682;28;1628;-78
2022/01/06 01:06:22;;;;;;;;;;;;;;;;;;5013524;28;1628;-78
2022/01/06 01:08:48;;;;;;;;;;;;;;;;;;5018261;28;1577;-78
2022/01/06 01:11:13;;;;;;;;;;;;;;;;;;5017012;28;1969;-78
2022/01/06 01:13:54;;;;;;;;;;;;;;;;;;5017078;28;1684;-78
2022/01/06 01:16:23;;;;;;;;;;;;;;;;;;4995199;28;1574;-78
2022/01/06 01:18:49;;;;;;;;;;;;;;;;;;5013378;28;1453;-78
2022/01/06 01:21:14;;;;;;;;;;;;;;;;;;5017036;28;1600;-78
2022/01/06 01:23:40;;;;;;;;;;;;;;;;;;5014980;28;1212;-78
2022/01/06 01:26:05;;;;;;;;;;;;;;;;;;5029164;28;1572;-78
2022/01/06 01:28:34;;;;;;;;;;;;;;;;;;5015182;28;1589;-78
2022/01/06 01:33:37;;;;;;;;;;;;;;;;;;5012516;28;1529;-78
2022/01/06 01:36:03;;;;;;;;;;;;;;;;;;5003509;28;1509;-78
2022/01/06 01:38:28;;;;;;;;;;;;;;;;;;5013102;28;1045;-78
2022/01/06 01:40:53;;;;;;;;;;;;;;;;;;4997766;28;1649;-79
2022/01/06 01:43:18;;;;;;;;;;;;;;;;;;5015646;28;1295;-78
2022/01/06 01:45:46;;;;;;;;;;;;;;;;;;5016516;28;1708;-78
2022/01/06 01:48:19;;;;;;;;;;;;;;;;;;5017094;28;849;-78
2022/01/06 01:50:44;;;;;;;;;;;;;;;;;;5006349;28;1602;-78
2022/01/06 01:53:09;;;;;;;;;;;;;;;;;;5016643;28;1906;-78
2022/01/06 01:55:35;;;;;;;;;;;;;;;;;;5019782;28;1722;-78
2022/01/06 01:58:00;;;;;;;;;;;;;;;;;;5018690;28;1533;-78
2022/01/06 02:00:26;;;;;;;;;;;;;;;;;;5036541;28;977;-78
2022/01/06 02:02:51;;;;;;;;;;;;;;;;;;5016754;28;1755;-78
2022/01/06 02:05:25;;;;;;;;;;;;;;;;;;5016856;28;1484;-78
2022/01/06 02:07:50;;;;;;;;;;;;;;;;;;5026226;28;1639;-78
2022/01/06 02:10:16;;;;;;;;;;;;;;;;;;5029839;28;1480;-78
2022/01/06 02:12:42;;;;;;;;;;;;;;;;;;5022601;28;1901;-78
2022/01/06 02:15:08;;;;;;;;;;;;;;;;;;5016332;28;917;-79
2022/01/06 02:17:33;;;;;;;;;;;;;;;;;;5024442;28;1596;-79
2022/01/06 02:19:59;;;;;;;;;;;;;;;;;;5034392;28;1555;-79
2022/01/06 02:22:25;;;;;;;;;;;;;;;;;;5005007;28;1375;-79
2022/01/06 02:24:50;;;;;;;;;;;;;;;;;;5000694;28;1596;-79
2022/01/06 02:27:16;;;;;;;;;;;;;;;;;;5021911;28;1771;-78
2022/01/06 02:29:42;;;;;;;;;;;;;;;;;;5030520;28;1600;-78
2022/01/06 02:32:14;;;;;;;;;;;;;;;;;;5010202;28;1961;-78
2022/01/06 02:34:39;;;;;;;;;;;;;;;;;;5029890;28;1612;-78
2022/01/06 02:37:04;;;;;;;;;;;;;;;;;;5015890;28;1064;-77
2022/01/06 02:39:29;;;;;;;;;;;;;;;;;;5015390;28;1596;-77
2022/01/06 02:41:55;;;;;;;;;;;;;;;;;;5015788;28;1454;-77
2022/01/06 02:44:23;;;;;;;;;;;;;;;;;;5015917;28;1445;-77
2022/01/06 02:46:48;;;;;;;;;;;;;;;;;;5015321;28;1537;-77
2022/01/06 02:49:14;;;;;;;;;;;;;;;;;;5031806;28;1477;-77
2022/01/06 02:51:40;;;;;;;;;;;;;;;;;;5023661;28;1977;-76
2022/01/06 02:54:05;;;;;;;;;;;;;;;;;;5014872;28;1298;-77
2022/01/06 02:56:32;;;;;;;;;;;;;;;;;;5023172;28;1607;-77
2022/01/06 02:58:57;;;;;;;;;;;;;;;;;;5035439;28;878;-76
2022/01/06 03:01:22;;;;;;;;;;;;;;;;;;5022399;28;1581;-77
2022/01/06 03:03:47;;;;;;;;;;;;;;;;;;5015577;28;1484;-77
2022/01/06 03:06:13;;;;;;;;;;;;;;;;;;5014775;28;1736;-77
2022/01/06 03:08:38;;;;;;;;;;;;;;;;;;5018049;28;1683;-77
2022/01/06 03:11:03;;;;;;;;;;;;;;;;;;5007140;28;1967;-77
2022/01/06 03:13:28;;;;;;;;;;;;;;;;;;5034391;28;1452;-78
2022/01/06 03:15:53;;;;;;;;;;;;;;;;;;5017856;28;1632;-78
2022/01/06 03:18:19;;;;;;;;;;;;;;;;;;5018916;28;1886;-78
2022/01/06 03:20:44;;;;;;;;;;;;;;;;;;5012273;28;1499;-78
2022/01/06 03:23:09;;;;;;;;;;;;;;;;;;5014940;28;1794;-78
2022/01/06 03:25:34;;;;;;;;;;;;;;;;;;5015097;28;1520;-78
2022/01/06 03:27:59;;;;;;;;;;;;;;;;;;5014684;28;1568;-77
2022/01/06 03:30:25;;;;;;;;;;;;;;;;;;5016236;28;1717;-77
2022/01/06 03:32:50;;;;;;;;;;;;;;;;;;5034154;28;1964;-78
2022/01/06 03:35:17;;;;;;;;;;;;;;;;;;5010057;28;1593;-78
2022/01/06 03:37:42;;;;;;;;;;;;;;;;;;5014838;28;937;-78
2022/01/06 03:40:08;;;;;;;;;;;;;;;;;;5014111;28;1628;-78
2022/01/06 03:42:33;;;;;;;;;;;;;;;;;;5015293;28;1466;-78
2022/01/06 03:44:58;;;;;;;;;;;;;;;;;;5016654;28;1577;-77
2022/01/06 03:47:24;;;;;;;;;;;;;;;;;;5024638;28;1636;-77
2022/01/06 03:49:49;;;;;;;;;;;;;;;;;;5001818;28;1624;-76
2022/01/06 03:52:14;;;;;;;;;;;;;;;;;;5014057;28;1898;-76
2022/01/06 03:54:39;;;;;;;;;;;;;;;;;;5015176;28;1881;-77
2022/01/06 03:57:04;;;;;;;;;;;;;;;;;;5021636;28;1621;-77
2022/01/06 03:59:30;;;;;;;;;;;;;;;;;;5019460;28;1608;-77
2022/01/06 04:01:55;;;;;;;;;;;;;;;;;;4996491;28;1705;-77
2022/01/06 04:04:20;;;;;;;;;;;;;;;;;;5019375;28;1668;-77
2022/01/06 04:06:45;;;;;;;;;;;;;;;;;;5015051;28;1632;-77
2022/01/06 04:09:10;;;;;;;;;;;;;;;;;;5029744;28;1505;-77
2022/01/06 04:11:36;;;;;;;;;;;;;;;;;;5020586;28;1906;-76
2022/01/06 04:14:01;;;;;;;;;;;;;;;;;;5021899;28;1680;-76
2022/01/06 04:16:28;;;;;;;;;;;;;;;;;;5014426;28;1720;-76
2022/01/06 04:18:53;;;;;;;;;;;;;;;;;;5032020;28;1620;-77
2022/01/06 04:21:18;;;;;;;;;;;;;;;;;;5012847;28;1487;-77
2022/01/06 04:23:47;;;;;;;;;;;;;;;;;;5016785;28;1596;-77
2022/01/06 04:26:12;;;;;;;;;;;;;;;;;;5033883;28;894;-77
2022/01/06 04:28:37;;;;;;;;;;;;;;;;;;5032470;28;1557;-77
2022/01/06 04:31:02;;;;;;;;;;;;;;;;;;5015520;28;1902;-77
2022/01/06 04:33:27;;;;;;;;;;;;;;;;;;5017019;28;1568;-77
2022/01/06 04:35:53;;;;;;;;;;;;;;;;;;5015886;28;1295;-77
2022/01/06 04:38:18;;;;;;;;;;;;;;;;;;4996879;28;1553;-77
2022/01/06 04:40:44;;;;;;;;;;;;;;;;;;5016108;28;835;-77
2022/01/06 04:43:09;;;;;;;;;;;;;;;;;;5015212;28;1572;-76
2022/01/06 04:45:34;;;;;;;;;;;;;;;;;;5031476;28;1600;-77
2022/01/06 04:47:59;;;;;;;;;;;;;;;;;;5033280;28;1053;-77
2022/01/06 04:50:24;;;;;;;;;;;;;;;;;;5026521;28;1608;-77
2022/01/06 04:52:50;;;;;;;;;;;;;;;;;;5013237;28;1977;-77
2022/01/06 04:55:15;;;;;;;;;;;;;;;;;;5014083;28;1650;-77
2022/01/06 04:57:40;;;;;;;;;;;;;;;;;;5033312;28;1017;-77
2022/01/06 05:00:06;;;;;;;;;;;;;;;;;;5033087;28;795;-77
2022/01/06 05:02:31;;;;;;;;;;;;;;;;;;5022515;28;1576;-77
2022/01/06 05:04:56;;;;;;;;;;;;;;;;;;5027161;28;1597;-76
2022/01/06 05:07:21;;;;;;;;;;;;;;;;;;5013404;28;850;-76
2022/01/06 05:09:46;;;;;;;;;;;;;;;;;;5009997;28;1493;-76
2022/01/06 05:12:12;;;;;;;;;;;;;;;;;;5004949;28;1886;-77
2022/01/06 05:14:37;;;;;;;;;;;;;;;;;;5032988;28;1202;-77
2022/01/06 05:17:02;;;;;;;;;;;;;;;;;;5020238;28;1948;-76
2022/01/06 05:19:27;;;;;;;;;;;;;;;;;;5012969;28;1496;-76
2022/01/06 05:21:53;;;;;;;;;;;;;;;;;;4999526;28;1654;-77
2022/01/06 05:24:19;;;;;;;;;;;;;;;;;;5032538;28;1347;-77
2022/01/06 05:26:44;;;;;;;;;;;;;;;;;;5031518;28;1635;-77
2022/01/06 05:29:10;;;;;;;;;;;;;;;;;;5023157;28;1653;-77
2022/01/06 05:31:35;;;;;;;;;;;;;;;;;;5004857;28;1931;-77
2022/01/06 05:34:00;;;;;;;;;;;;;;;;;;5022257;28;1716;-76
2022/01/06 05:36:26;;;;;;;;;;;;;;;;;;5016854;28;1596;-76
2022/01/06 05:38:51;;;;;;;;;;;;;;;;;;5012535;28;2479;-77
2022/01/06 05:41:16;;;;;;;;;;;;;;;;;;5019761;28;2575;-77
2022/01/06 05:43:41;;;;;;;;;;;;;;;;;;5030625;28;1457;-77
2022/01/06 05:46:06;;;;;;;;;;;;;;;;;;5012626;28;1681;-77
2022/01/06 05:48:32;;;;;;;;;;;;;;;;;;5014507;28;1565;-76
2022/01/06 05:50:57;;;;;;;;;;;;;;;;;;5012330;28;1639;-76
2022/01/06 05:53:22;;;;;;;;;;;;;;;;;;5012057;28;1902;-76
2022/01/06 05:55:47;;;;;;;;;;;;;;;;;;5012473;28;1489;-76
2022/01/06 05:58:12;;;;;;;;;;;;;;;;;;5013291;28;1683;-77
2022/01/06 06:00:38;;;;;;;;;;;;;;;;;;5024195;28;1516;-77
2022/01/06 06:03:03;;;;;;;;;;;;;;;;;;5012002;28;1727;-77
2022/01/06 06:05:28;;;;;;;;;;;;;;;;;;5022653;28;1569;-77
2022/01/06 06:07:53;;;;;;;;;;;;;;;;;;5031863;28;1453;-77
2022/01/06 06:10:18;;;;;;;;;;;;;;;;;;5022953;28;1673;-77
2022/01/06 06:12:44;;;;;;;;;;;;;;;;;;5016277;28;1910;-77
2022/01/06 06:15:09;;;;;;;;;;;;;;;;;;5026840;28;1691;-77
2022/01/06 06:17:34;;;;;;;;;;;;;;;;;;5023641;28;1621;-77
2022/01/06 06:19:59;;;;;;;;;;;;;;;;;;5023286;28;1477;-77
2022/01/06 06:22:25;;;;;;;;;;;;;;;;;;5018842;28;1620;-77
2022/01/06 06:24:50;;;;;;;;;;;;;;;;;;5020780;28;1235;-77
2022/01/06 06:27:15;;;;;;;;;;;;;;;;;;5021343;28;1660;-77
2022/01/06 06:29:40;;;;;;;;;;;;;;;;;;5025623;28;1274;-77
2022/01/06 06:32:06;;;;;;;;;;;;;;;;;;5025334;28;1975;-77
2022/01/06 06:34:31;;;;;;;;;;;;;;;;;;5027040;28;1659;-77
2022/01/06 06:36:56;;;;;;;;;;;;;;;;;;5024597;28;1616;-76
2022/01/06 06:39:21;;;;;;;;;;;;;;;;;;5006123;28;1555;-77
2022/01/06 06:41:47;;;;;;;;;;;;;;;;;;5028222;28;1521;-77
2022/01/06 06:44:12;;;;;;;;;;;;;;;;;;5025904;28;1222;-77
2022/01/06 06:46:37;;;;;;;;;;;;;;;;;;5034248;28;1627;-77
2022/01/06 06:49:02;;;;;;;;;;;;;;;;;;5016533;28;1601;-77
2022/01/06 06:51:27;;;;;;;;;;;;;;;;;;5015334;28;1906;-77
2022/01/06 06:53:53;;;;;;;;;;;;;;;;;;5032936;28;1569;-77
2022/01/06 06:56:18;;;;;;;;;;;;;;;;;;5021248;28;1640;-77
2022/01/06 06:58:43;;;;;;;;;;;;;;;;;;5022518;28;1564;-77
2022/01/06 07:01:08;;;;;;;;;;;;;;;;;;5022692;28;1962;-77
2022/01/06 07:03:33;;;;;;;;;;;;;;;;;;5025658;28;1604;-77
2022/01/06 07:05:59;;;;;;;;;;;;;;;;;;5023112;28;1568;-76
2022/01/06 07:08:24;;;;;;;;;;;;;;;;;;5022729;28;1568;-76
2022/01/06 07:10:49;;;;;;;;;;;;;;;;;;5021830;28;1700;-77
2022/01/06 07:13:16;;;;;;;;;;;;;;;;;;5023313;28;2017;-77
2022/01/06 07:15:42;;;;;;;;;;;;;;;;;;5019634;28;1802;-77
2022/01/06 07:18:07;;;;;;;;;;;;;;;;;;5025576;28;1226;-77
2022/01/06 07:20:32;;;;;;;;;;;;;;;;;;5023526;28;1635;-77
2022/01/06 07:22:58;;;;;;;;;;;;;;;;;;5007563;28;1286;-77
2022/01/06 07:25:23;;;;;;;;;;;;;;;;;;5005212;28;1522;-77
2022/01/06 07:27:48;;;;;;;;;;;;;;;;;;5024051;28;1274;-77
2022/01/06 07:30:13;;;;;;;;;;;;;;;;;;5023351;28;1573;-77
2022/01/06 07:32:45;;;;;;;;;;;;;;;;;;5023318;28;1898;-77
2022/01/06 07:35:10;;;;;;;;;;;;;;;;;;5025126;28;1636;-77
2022/01/06 07:37:36;;;;;;;;;;;;;;;;;;5023882;28;1258;-77
2022/01/06 07:40:01;;;;;;;;;;;;;;;;;;5021195;28;1680;-77
2022/01/06 07:42:26;;;;;;;;;;;;;;;;;;5005823;28;1382;-76
2022/01/06 07:44:51;;;;;;;;;;;;;;;;;;5021143;28;1576;-77
2022/01/06 07:47:17;;;;;;;;;;;;;;;;;;5022796;28;1522;-76
2022/01/06 07:49:42;;;;;;;;;;;;;;;;;;5021864;28;1659;-76
2022/01/06 07:52:07;;;;;;;;;;;;;;;;;;5017366;28;1965;-77
2022/01/06 07:54:33;;;;;;;;;;;;;;;;;;5023032;28;1613;-77
2022/01/06 07:56:58;;;;;;;;;;;;;;;;;;5023529;28;1307;-77
2022/01/06 07:59:23;;;;;;;;;;;;;;;;;;5020079;28;1635;-77
2022/01/06 08:01:48;;;;;;;;;;;;;;;;;;5024285;28;1425;-77
2022/01/06 08:04:13;;;;;;;;;;;;;;;;;;5020176;28;1608;-77
2022/01/06 08:06:39;;;;;;;;;;;;;;;;;;5014765;28;1500;-78
2022/01/06 08:09:04;;;;;;;;;;;;;;;;;;5016778;28;2762;-77
2022/01/06 08:11:29;;;;;;;;;;;;;;;;;;5021564;28;2119;-78
2022/01/06 08:13:54;;;;;;;;;;;;;;;;;;5033106;28;1199;-78
2022/01/06 08:16:19;;;;;;;;;;;;;;;;;;5014101;28;2091;-77
2022/01/06 08:18:45;;;;;;;;;;;;;;;;;;5013265;28;1620;-77
2022/01/06 08:21:10;;;;;;;;;;;;;;;;;;5021822;28;1405;-78
2022/01/06 08:23:35;;;;;;;;;;;;;;;;;;5025213;28;1905;-78
2022/01/06 08:26:00;;;;;;;;;;;;;;;;;;5019553;28;1676;-78
2022/01/06 08:28:25;;;;;;;;;;;;;;;;;;5019038;28;2488;-78
2022/01/06 08:30:51;;;;;;;;;;;;;;;;;;5013431;28;1739;-77
2022/01/06 08:33:16;;;;;;;;;;;;;;;;;;5015017;28;1905;-77
2022/01/06 08:35:41;;;;;;;;;;;;;;;;;;5042062;28;1562;-77
2022/01/06 08:38:06;;;;;;;;;;;;;;;;;;5023295;28;1655;-77
2022/01/06 08:40:32;;;;;;;;;;;;;;;;;;5026474;28;1706;-77
2022/01/06 08:42:57;;;;;;;;;;;;;;;;;;5016391;28;1733;-78
2022/01/06 08:45:22;;;;;;;;;;;;;;;;;;5028377;28;1611;-78
2022/01/06 08:47:47;;;;;;;;;;;;;;;;;;5001546;28;1548;-77
2022/01/06 08:50:13;;;;;;;;;;;;;;;;;;5030150;28;1631;-80
2022/01/06 08:52:38;;;;;;;;;;;;;;;;;;4997482;28;1956;-78
2022/01/06 08:55:04;;;;;;;;;;;;;;;;;;5005665;28;1982;-78
2022/01/06 08:57:30;;;;;;;;;;;;;;;;;;5007879;28;1554;-78
2022/01/06 08:59:55;;;;;;;;;;;;;;;;;;5013281;28;1577;-75
2022/01/06 09:02:20;;;;;;;;;;;;;;;;;;5015431;28;1648;-78
2022/01/06 09:04:45;;;;;;;;;;;;;;;;;;5028521;28;2337;-78
2022/01/06 09:07:11;;;;;;;;;;;;;;;;;;5014260;28;1584;-77
2022/01/06 09:09:37;;;;;;;;;;;;;;;;;;5016706;28;1635;-79
2022/01/06 09:12:02;;;;;;;;;;;;;;;;;;5020079;28;1984;-80
2022/01/06 09:14:27;;;;;;;;;;;;;;;;;;5015829;28;1612;-81
2022/01/06 09:16:54;;;;;;;;;;;;;;;;;;5023039;28;1668;-77
2022/01/06 09:19:19;;;;;;;;;;;;;;;;;;5020943;28;1648;-80
2022/01/06 09:21:44;;;;;;;;;;;;;;;;;;5017397;28;1739;-80
2022/01/06 09:24:09;;;;;;;;;;;;;;;;;;5019301;28;1637;-79
2022/01/06 09:26:35;;;;;;;;;;;;;;;;;;5021516;28;1607;-79
2022/01/06 09:29:02;;;;;;;;;;;;;;;;;;5021779;28;1639;-79
2022/01/06 09:31:27;;;;;;;;;;;;;;;;;;5022683;28;1898;-78
2022/01/06 09:33:52;;;;;;;;;;;;;;;;;;5017468;28;1557;-79
2022/01/06 09:36:18;;;;;;;;;;;;;;;;;;5025354;28;1684;-77
2022/01/06 09:38:45;;;;;;;;;;;;;;;;;;5018985;28;1424;-77
2022/01/06 09:41:11;;;;;;;;;;;;;;;;;;5018926;28;1319;-78
2022/01/06 09:43:36;;;;;;;;;;;;;;;;;;5020717;28;1786;-79
2022/01/06 09:46:02;;;;;;;;;;;;;;;;;;5022045;28;1397;-78
2022/01/06 09:48:28;;;;;;;;;;;;;;;;;;5022086;28;1632;-77
2022/01/06 09:50:53;;;;;;;;;;;;;;;;;;5014987;28;906;-77
2022/01/06 09:53:21;;;;;;;;;;;;;;;;;;5023334;28;1977;-77
2022/01/06 09:55:46;;;;;;;;;;;;;;;;;;5012934;28;1532;-78
2022/01/06 09:58:11;;;;;;;;;;;;;;;;;;5012287;28;1540;-78
2022/01/06 10:00:37;;;;;;;;;;;;;;;;;;5012809;28;1547;-78
2022/01/06 10:03:03;;;;;;;;;;;;;;;;;;5013677;28;2084;-78
2022/01/06 10:05:42;;;;;;;;;;;;;;;;;;5036322;28;826;-77
2022/01/06 10:08:08;;;;;;;;;;;;;;;;;;5000148;28;1468;-77
2022/01/06 10:10:34;;;;;;;;;;;;;;;;;;5028186;28;1592;-78
2022/01/06 10:13:00;;;;;;;;;;;;;;;;;;5024693;28;1971;-78
2022/01/06 10:15:26;;;;;;;;;;;;;;;;;;5021245;28;1770;-78
2022/01/06 10:17:52;;;;;;;;;;;;;;;;;;5027783;28;1386;-76
2022/01/06 10:20:18;;;;;;;;;;;;;;;;;;5030821;28;1621;-78
2022/01/06 10:22:47;;;;;;;;;;;;;;;;;;5034445;28;1466;-78
2022/01/06 10:25:13;;;;;;;;;;;;;;;;;;5024048;28;1557;-77
2022/01/06 10:27:39;;;;;;;;;;;;;;;;;;5016195;28;810;-77
2022/01/06 10:30:05;;;;;;;;;;;;;;;;;;5015960;28;1616;-78
2022/01/06 10:32:31;;;;;;;;;;;;;;;;;;4998467;28;1975;-78
2022/01/06 10:34:59;;;;;;;;;;;;;;;;;;5025821;28;1636;-78
2022/01/06 10:37:24;;;;;;;;;;;;;;;;;;5028086;28;1991;-78
2022/01/06 10:39:51;;;;;;;;;;;;;;;;;;5016144;28;870;-78
2022/01/06 10:42:16;;;;;;;;;;;;;;;;;;5022938;28;1651;-78
2022/01/06 10:44:53;;;;;;;;;;;;;;;;;;5024291;28;1682;-78
2022/01/06 10:47:29;;;;;;;;;;;;;;;;;;5015491;28;1601;-78
2022/01/06 10:49:54;;;;;;;;;;;;;;;;;;5000443;28;1771;-78
2022/01/06 10:52:26;;;;;;;;;;;;;;;;;;5008974;28;1906;-78
2022/01/06 10:54:51;;;;;;;;;;;;;;;;;;5024955;28;1655;-78
2022/01/06 10:57:17;;;;;;;;;;;;;;;;;;5033977;28;1699;-77
2022/01/06 10:59:42;;;;;;;;;;;;;;;;;;5031944;28;1623;-78
2022/01/06 11:02:07;;;;;;;;;;;;;;;;;;5001067;28;1590;-78
2022/01/06 11:04:33;;;;;;;;;;;;;;;;;;5015956;28;1976;-78
2022/01/06 11:06:58;;;;;;;;;;;;;;;;;;5017174;28;1651;-78
2022/01/06 11:09:23;;;;;;;;;;;;;;;;;;5031840;28;1580;-77
2022/01/06 11:14:17;;;;;;;;;;;;;;;;;;5021252;28;1727;-77
2022/01/06 11:16:43;;;;;;;;;;;;;;;;;;5033444;28;1596;-77
2022/01/06 11:19:08;;;;;;;;;;;;;;;;;;5016314;28;1626;-77
2022/01/06 11:21:46;;;;;;;;;;;;;;;;;;5021765;28;1673;-77
2022/01/06 11:24:13;;;;;;;;;;;;;;;;;;5012025;28;1737;-77
2022/01/06 11:26:38;;;;;;;;;;;;;;;;;;5020837;28;1629;-77
2022/01/06 11:29:03;;;;;;;;;;;;;;;;;;5006508;28;1536;-77
2022/01/06 11:31:35;;;;;;;;;;;;;;;;;;5026974;28;2243;-77
2022/01/06 11:34:11;;;;;;;;;;;;;;;;;;5009478;28;1655;-77
2022/01/06 11:36:37;;;;;;;;;;;;;;;;;;5018696;28;1731;-77
2022/01/06 11:39:04;;;;;;;;;;;;;;;;;;5020619;28;1340;-77
2022/01/06 11:41:35;;;;;;;;;;;;;;;;;;5013902;28;1625;-77
2022/01/06 11:44:02;;;;;;;;;;;;;;;;;;5033846;28;1728;-77
2022/01/06 11:46:27;;;;;;;;;;;;;;;;;;5017092;28;826;-78
2022/01/06 11:48:54;;;;;;;;;;;;;;;;;;5033182;28;1568;-77
2022/01/06 11:51:22;;;;;;;;;;;;;;;;;;5034541;28;818;-77
2022/01/06 11:53:47;;;;;;;;;;;;;;;;;;5027308;28;1592;-77
2022/01/06 11:56:12;;;;;;;;;;;;;;;;;;5020861;28;1545;-78
2022/01/06 11:58:38;;;;;;;;;;;;;;;;;;5014589;28;1517;-78
2022/01/06 12:01:05;;;;;;;;;;;;;;;;;;5015340;28;1758;-77
2022/01/06 12:03:33;;;;;;;;;;;;;;;;;;5033829;28;2405;-77
2022/01/06 12:05:58;;;;;;;;;;;;;;;;;;5014407;28;1009;-78
2022/01/06 12:08:34;;;;;;;;;;;;;;;;;;5029727;28;1570;-78
2022/01/06 12:10:59;;;;;;;;;;;;;;;;;;5016546;28;957;-78
2022/01/06 12:13:24;;;;;;;;;;;;;;;;;;5023079;28;1905;-78
2022/01/06 12:15:56;;;;;;;;;;;;;;;;;;5014361;28;1455;-78
2022/01/06 12:18:23;;;;;;;;;;;;;;;;;;5032616;28;1553;-78
2022/01/06 12:20:48;;;;;;;;;;;;;;;;;;5016489;28;1193;-78
2022/01/06 12:23:14;;;;;;;;;;;;;;;;;;5009265;28;1665;-78
2022/01/06 12:25:39;;;;;;;;;;;;;;;;;;5014035;28;1440;-78
2022/01/06 12:28:04;;;;;;;;;;;;;;;;;;5008190;28;1597;-78
2022/01/06 12:30:30;;;;;;;;;;;;;;;;;;4996656;28;1491;-78
2022/01/06 12:32:57;;;;;;;;;;;;;;;;;;4995337;28;1910;-78
2022/01/06 12:35:34;;;;;;;;;;;;;;;;;;5036871;28;1223;-79
2022/01/06 12:37:59;;;;;;;;;;;;;;;;;;5052332;28;1581;-78
2022/01/06 12:40:34;;;;;;;;;;;;;;;;;;5015536;28;1201;-79
2022/01/06 12:43:00;;;;;;;;;;;;;;;;;;5013164;28;1660;-79
2022/01/06 12:45:25;;;;;;;;;;;;;;;;;;4979746;28;1155;-78
2022/01/06 12:47:50;;;;;;;;;;;;;;;;;;5019053;28;1604;-79
2022/01/06 12:50:15;;;;;;;;;;;;;;;;;;5023680;28;1592;-78
2022/01/06 12:52:44;;;;;;;;;;;;;;;;;;5007310;28;1910;-79
2022/01/06 12:55:10;;;;;;;;;;;;;;;;;;5030642;28;1682;-78
2022/01/06 12:57:37;;;;;;;;;;;;;;;;;;5015631;28;1757;-79
2022/01/06 13:00:09;;;;;;;;;;;;;;;;;;5025813;28;1584;-79
2022/01/06 13:02:34;;;;;;;;;;;;;;;;;;5021137;28;1593;-79
2022/01/06 13:05:01;;;;;;;;;;;;;;;;;;5026653;28;2314;-79
2022/01/06 13:07:27;;;;;;;;;;;;;;;;;;5012916;28;1672;-79
2022/01/06 13:09:56;;;;;;;;;;;;;;;;;;5027478;28;1600;-79
2022/01/06 13:12:25;;;;;;;;;;;;;;;;;;5024706;28;2005;-79
2022/01/06 13:14:53;;;;;;;;;;;;;;;;;;4994863;28;1652;-79
2022/01/06 13:17:19;;;;;;;;;;;;;;;;;;5027222;28;1633;-79
2022/01/06 13:19:53;;;;;;;;;;;;;;;;;;5031383;28;1779;-79
2022/01/06 13:22:36;;;;;;;;;;;;;;;;;;5033044;28;811;-79
2022/01/06 13:25:10;;;;;;;;;;;;;;;;;;5016315;28;1644;-79
2022/01/06 13:27:36;;;;;;;;;;;;;;;;;;5013211;28;938;-78
2022/01/06 13:30:01;;;;;;;;;;;;;;;;;;5008444;28;1649;-78
2022/01/06 13:32:27;;;;;;;;;;;;;;;;;;5031952;28;1965;-78
2022/01/06 13:35:08;;;;;;;;;;;;;;;;;;5034227;28;1502;-79
2022/01/06 13:37:34;;;;;;;;;;;;;;;;;;5028577;28;1683;-79
2022/01/06 13:40:09;;;;;;;;;;;;;;;;;;5019373;28;822;-78
2022/01/06 13:42:37;;;;;;;;;;;;;;;;;;5035524;28;1600;-78
2022/01/06 13:45:17;;;;;;;;;;;;;;;;;;5021723;28;1638;-78
2022/01/06 13:48:20;;;;;;;;;;;;;;;;;;5018318;28;1674;-78
2022/01/06 13:53:30;;;;;;;;;;;;;;;;;;5015799;28;1894;-80
2022/01/06 13:55:56;;;;;;;;;;;;;;;;;;5032811;28;1728;-81
2022/01/06 13:58:21;;;;;;;;;;;;;;;;;;5035949;28;1512;-81
2022/01/06 14:00:46;;;;;;;;;;;;;;;;;;5023984;28;1809;-81
2022/01/06 14:03:11;;;;;;;;;;;;;;;;;;5015227;28;2171;-81
2022/01/06 14:05:37;;;;;;;;;;;;;;;;;;5016491;28;1653;-81
2022/01/06 14:08:02;;;;;;;;;;;;;;;;;;5024273;28;1627;-82
2022/01/06 14:10:27;;;;;;;;;;;;;;;;;;4999424;28;1350;-83
2022/01/06 14:12:55;;;;;;;;;;;;;;;;;;5020985;28;1903;-82
2022/01/06 14:15:20;;;;;;;;;;;;;;;;;;5018353;28;1382;-82
2022/01/06 14:17:46;;;;;;;;;;;;;;;;;;5031894;28;1592;-81
2022/01/06 14:20:11;;;;;;;;;;;;;;;;;;5015447;28;1598;-82
2022/01/06 14:22:36;;;;;;;;;;;;;;;;;;5030144;28;1577;-82
2022/01/06 14:25:02;;;;;;;;;;;;;;;;;;5017455;28;1467;-80
2022/01/06 14:27:27;;;;;;;;;;;;;;;;;;5016549;28;1576;-81
2022/01/06 14:29:52;;;;;;;;;;;;;;;;;;5028043;28;1612;-80
2022/01/06 14:32:17;;;;;;;;;;;;;;;;;;5042987;28;1898;-81
2022/01/06 14:34:43;;;;;;;;;;;;;;;;;;5016554;28;1709;-81
2022/01/06 14:37:08;;;;;;;;;;;;;;;;;;5034995;28;1715;-78
2022/01/06 14:39:33;;;;;;;;;;;;;;;;;;5008012;28;1708;-81
2022/01/06 14:41:58;;;;;;;;;;;;;;;;;;5023939;28;1731;-78
2022/01/06 14:44:23;;;;;;;;;;;;;;;;;;5031920;28;1525;-79
2022/01/06 14:46:49;;;;;;;;;;;;;;;;;;5015501;28;1705;-79
2022/01/06 14:49:14;;;;;;;;;;;;;;;;;;5021071;28;1497;-79
2022/01/06 14:51:39;;;;;;;;;;;;;;;;;;5024472;28;1910;-77
2022/01/06 14:54:04;;;;;;;;;;;;;;;;;;5027310;28;1596;-77
2022/01/06 14:56:30;;;;;;;;;;;;;;;;;;5029404;28;1616;-77
2022/01/06 14:58:55;;;;;;;;;;;;;;;;;;5022550;28;1604;-76
2022/01/06 15:01:20;;;;;;;;;;;;;;;;;;5034930;28;1645;-77
2022/01/06 15:03:45;;;;;;;;;;;;;;;;;;5020463;28;2151;-76
2022/01/06 15:06:10;;;;;;;;;;;;;;;;;;5017149;28;1518;-76
2022/01/06 15:08:36;;;;;;;;;;;;;;;;;;5031639;28;1680;-76
2022/01/06 15:11:01;;;;;;;;;;;;;;;;;;5029181;28;1632;-73
2022/01/06 15:13:26;;;;;;;;;;;;;;;;;;5015199;28;1910;-75
2022/01/06 15:15:53;;;;;;;;;;;;;;;;;;5028168;28;1708;-75
2022/01/06 15:18:18;;;;;;;;;;;;;;;;;;5026898;28;1660;-73
2022/01/06 15:20:44;;;;;;;;;;;;;;;;;;5028455;28;1755;-73
2022/01/06 15:23:09;;;;;;;;;;;;;;;;;;5026476;28;1530;-73
2022/01/06 15:25:34;;;;;;;;;;;;;;;;;;5028849;28;1689;-73
2022/01/06 15:27:59;;;;;;;;;;;;;;;;;;5032616;28;1644;-73
2022/01/06 15:30:24;;;;;;;;;;;;;;;;;;5032345;28;1735;-72
2022/01/06 15:32:50;;;;;;;;;;;;;;;;;;5034337;28;1898;-73
2022/01/06 15:35:15;;;;;;;;;;;;;;;;;;5043329;28;1534;-74
2022/01/06 15:37:40;;;;;;;;;;;;;;;;;;5025238;28;1624;-76
2022/01/06 15:40:07;;;;;;;;;;;;;;;;;;5017107;28;1789;-77
2022/01/06 16:08:23;;;;;;;;;;;;;;;;;;5986706;23;1855;-77
2022/01/06 16:10:49;;;;;;;;;;;;;;;;;;5014029;28;1600;-75
2022/01/06 16:13:15;;;;;;;;;;;;;;;;;;5008619;28;1971;-76
2022/01/06 16:15:41;;;;;;;;;;;;;;;;;;5023598;22;2031;-74
2022/01/06 16:18:06;;;;;;;;;;;;;;;;;;5021249;28;1695;-72
2022/01/06 16:20:31;;;;;;;;;;;;;;;;;;5026574;28;1821;-72
2022/01/06 16:22:56;;;;;;;;;;;;;;;;;;5028461;28;1662;-73
2022/01/06 16:25:23;;;;;;;;;;;;;;;;;;5031603;28;1222;-72
2022/01/06 16:27:49;;;;;;;;;;;;;;;;;;5020505;28;2802;-74
2022/01/06 16:30:15;;;;;;;;;;;;;;;;;;5021015;28;2875;-72
2022/01/06 16:32:40;;;;;;;;;;;;;;;;;;5018588;28;2608;-75
2022/01/06 16:35:07;;;;;;;;;;;;;;;;;;5019303;28;2692;-73
2022/01/06 16:37:32;;;;;;;;;;;;;;;;;;5016987;23;2781;-71
2022/01/06 16:39:57;;;;;;;;;;;;;;;;;;5018979;28;2206;-72
2022/01/06 16:42:23;;;;;;;;;;;;;;;;;;5006590;28;1677;-72
2022/01/06 16:44:48;;;;;;;;;;;;;;;;;;5003023;28;1775;-73
2022/01/06 16:47:13;;;;;;;;;;;;;;;;;;5009754;28;1943;-72
2022/01/06 16:49:39;;;;;;;;;;;;;;;;;;5018978;28;1971;-72
2022/01/06 16:52:08;;;;;;;;;;;;;;;;;;5007457;28;1971;-72
2022/01/06 16:54:33;;;;;;;;;;;;;;;;;;4992952;28;833;-72
2022/01/06 16:56:58;;;;;;;;;;;;;;;;;;5009656;28;2201;-72
2022/01/06 16:59:23;;;;;;;;;;;;;;;;;;5010261;28;1662;-72
2022/01/06 17:01:48;;;;;;;;;;;;;;;;;;5010865;28;1797;-72
2022/01/06 17:04:14;;;;;;;;;;;;;;;;;;5005956;28;1704;-73
2022/01/06 17:06:40;;;;;;;;;;;;;;;;;;5020621;28;1805;-73
2022/01/06 17:09:06;;;;;;;;;;;;;;;;;;5016011;28;1634;-73
2022/01/06 17:11:31;;;;;;;;;;;;;;;;;;5013391;28;1990;-72
2022/01/06 17:13:56;;;;;;;;;;;;;;;;;;5015178;28;1953;-72
2022/01/06 17:16:22;;;;;;;;;;;;;;;;;;5014395;28;1612;-72
2022/01/06 17:18:48;;;;;;;;;;;;;;;;;;5006037;28;1713;-72
2022/01/06 17:21:13;;;;;;;;;;;;;;;;;;4992318;28;1700;-72
2022/01/06 17:23:40;;;;;;;;;;;;;;;;;;5014586;28;1076;-71
2022/01/06 17:26:14;;;;;;;;;;;;;;;;;;5029684;28;1116;-72
2022/01/06 17:28:40;;;;;;;;;;;;;;;;;;5012673;28;1508;-72
2022/01/06 17:31:05;;;;;;;;;;;;;;;;;;5004207;28;1658;-72
2022/01/06 17:33:32;;;;;;;;;;;;;;;;;;5017107;28;2169;-72
2022/01/06 17:35:57;;;;;;;;;;;;;;;;;;4999075;28;1717;-71